Terminal Aerodrome Forecast
Issued by NWS Green Bay, WI

Home | Current Version | Previous Version | Text Only | Print | Product List | Glossary On
Versions: 1 2 3 4 5 6 7 8 9 10 11 12 13 14 15 16 17 18 19 20 21 22 23 24 25 26 27 28 29 30 31 32 33
000
FTUS43 KGRB 201100 RRA
TAFGRB
TAF
KGRB 201144Z 2012/2112 19009KT P6SM SCT050 OVC080 WS012/23035KT
      TEMPO 2012/2014 -SHRA
     FM201400 21008KT P6SM BKN040 OVC070
      TEMPO 2014/2016 -SHRA
     FM210000 12005KT P6SM -SHRA BKN035 OVC050
     FM210700 06004KT 4SM -SHRA BR BKN025 OVC040
      TEMPO 2110/2112 2SM -SHRA BR BKN015=

USA.gov is the U.S. government's official web portal to all federal, state and local government web resources and services.